sensor_id;sensor_type;location;lat;lon;timestamp;temperature;humidity
14741;DHT22;7462;53.530;9.414;2022-07-24T00:01:34;14.90;99.90
14741;DHT22;7462;53.530;9.414;2022-07-24T00:04:03;14.80;99.90
14741;DHT22;7462;53.530;9.414;2022-07-24T00:06:32;14.80;99.90
14741;DHT22;7462;53.530;9.414;2022-07-24T00:09:00;14.80;99.90
14741;DHT22;7462;53.530;9.414;2022-07-24T00:11:29;14.80;99.90
14741;DHT22;7462;53.530;9.414;2022-07-24T00:13:57;14.80;99.90
14741;DHT22;7462;53.530;9.414;2022-07-24T00:16:26;14.70;99.90
14741;DHT22;7462;53.530;9.414;2022-07-24T00:18:55;14.70;99.90
14741;DHT22;7462;53.530;9.414;2022-07-24T00:21:24;14.60;99.90
14741;DHT22;7462;53.530;9.414;2022-07-24T00:23:52;14.70;99.90
14741;DHT22;7462;53.530;9.414;2022-07-24T00:26:20;14.70;99.90
14741;DHT22;7462;53.530;9.414;2022-07-24T00:28:48;14.70;99.90
14741;DHT22;7462;53.530;9.414;2022-07-24T00:31:17;14.60;99.90
14741;DHT22;7462;53.530;9.414;2022-07-24T00:33:47;14.60;99.90
14741;DHT22;7462;53.530;9.414;2022-07-24T00:36:16;14.60;99.90
14741;DHT22;7462;53.530;9.414;2022-07-24T00:38:44;14.60;99.90
14741;DHT22;7462;53.530;9.414;2022-07-24T00:41:12;14.60;99.90
14741;DHT22;7462;53.530;9.414;2022-07-24T00:44:05;14.50;99.90
14741;DHT22;7462;53.530;9.414;2022-07-24T00:46:35;14.50;99.90
14741;DHT22;7462;53.530;9.414;2022-07-24T00:49:05;14.50;99.90
14741;DHT22;7462;53.530;9.414;2022-07-24T00:51:46;14.40;99.90
14741;DHT22;7462;53.530;9.414;2022-07-24T00:54:16;14.40;99.90
14741;DHT22;7462;53.530;9.414;2022-07-24T00:56:49;14.40;99.90
14741;DHT22;7462;53.530;9.414;2022-07-24T00:59:18;14.40;99.90
14741;DHT22;7462;53.530;9.414;2022-07-24T01:01:47;14.40;99.90
14741;DHT22;7462;53.530;9.414;2022-07-24T01:04:17;14.40;99.90
14741;DHT22;7462;53.530;9.414;2022-07-24T01:06:47;14.40;99.90
14741;DHT22;7462;53.530;9.414;2022-07-24T01:09:15;14.30;99.90
14741;DHT22;7462;53.530;9.414;2022-07-24T01:11:44;14.30;99.90
14741;DHT22;7462;53.530;9.414;2022-07-24T01:14:13;14.30;99.90
14741;DHT22;7462;53.530;9.414;2022-07-24T01:16:42;14.30;99.90
14741;DHT22;7462;53.530;9.414;2022-07-24T01:19:12;14.30;99.90
14741;DHT22;7462;53.530;9.414;2022-07-24T01:21:48;14.20;99.90
14741;DHT22;7462;53.530;9.414;2022-07-24T01:24:18;14.20;99.90
14741;DHT22;7462;53.530;9.414;2022-07-24T01:26:46;14.30;99.90
14741;DHT22;7462;53.530;9.414;2022-07-24T01:29:15;14.20;99.90
14741;DHT22;7462;53.530;9.414;2022-07-24T01:31:44;14.20;99.90
14741;DHT22;7462;53.530;9.414;2022-07-24T01:34:12;14.30;99.90
14741;DHT22;7462;53.530;9.414;2022-07-24T01:36:40;14.20;99.90
14741;DHT22;7462;53.530;9.414;2022-07-24T01:39:11;14.20;99.90
14741;DHT22;7462;53.530;9.414;2022-07-24T01:41:39;14.20;99.90
14741;DHT22;7462;53.530;9.414;2022-07-24T01:44:07;14.20;99.90
14741;DHT22;7462;53.530;9.414;2022-07-24T01:46:35;14.10;99.90
14741;DHT22;7462;53.530;9.414;2022-07-24T01:49:03;14.10;99.90
14741;DHT22;7462;53.530;9.414;2022-07-24T01:51:32;14.20;99.90
14741;DHT22;7462;53.530;9.414;2022-07-24T01:54:00;14.10;99.90
14741;DHT22;7462;53.530;9.414;2022-07-24T01:56:31;14.10;99.90
14741;DHT22;7462;53.530;9.414;2022-07-24T01:58:59;14.10;99.90
14741;DHT22;7462;53.530;9.414;2022-07-24T02:01:33;14.10;99.90
14741;DHT22;7462;53.530;9.414;2022-07-24T02:04:01;14.10;99.90
14741;DHT22;7462;53.530;9.414;2022-07-24T02:06:29;14.10;99.90
14741;DHT22;7462;53.530;9.414;2022-07-24T02:08:57;14.10;99.90
14741;DHT22;7462;53.530;9.414;2022-07-24T02:11:26;14.10;99.90
14741;DHT22;7462;53.530;9.414;2022-07-24T02:13:55;14.00;99.90
14741;DHT22;7462;53.530;9.414;2022-07-24T02:16:26;14.00;99.90
14741;DHT22;7462;53.530;9.414;2022-07-24T02:18:55;14.00;99.90
14741;DHT22;7462;53.530;9.414;2022-07-24T02:21:23;14.00;99.90
14741;DHT22;7462;53.530;9.414;2022-07-24T02:23:51;14.00;99.90
14741;DHT22;7462;53.530;9.414;2022-07-24T02:26:20;14.00;99.90
14741;DHT22;7462;53.530;9.414;2022-07-24T02:28:48;14.00;99.90
14741;DHT22;7462;53.530;9.414;2022-07-24T02:31:17;14.00;99.90
14741;DHT22;7462;53.530;9.414;2022-07-24T02:33:46;14.00;99.90
14741;DHT22;7462;53.530;9.414;2022-07-24T02:36:14;14.00;99.90
14741;DHT22;7462;53.530;9.414;2022-07-24T02:38:42;13.90;99.90
14741;DHT22;7462;53.530;9.414;2022-07-24T02:41:10;14.00;99.90
14741;DHT22;7462;53.530;9.414;2022-07-24T02:43:38;14.00;99.90
14741;DHT22;7462;53.530;9.414;2022-07-24T02:46:06;14.00;99.90
14741;DHT22;7462;53.530;9.414;2022-07-24T02:48:36;13.90;99.90
14741;DHT22;7462;53.530;9.414;2022-07-24T02:51:04;13.90;99.90
14741;DHT22;7462;53.530;9.414;2022-07-24T02:53:32;14.00;99.90
14741;DHT22;7462;53.530;9.414;2022-07-24T02:56:01;13.90;99.90
14741;DHT22;7462;53.530;9.414;2022-07-24T02:58:29;14.00;99.90
14741;DHT22;7462;53.530;9.414;2022-07-24T03:00:57;13.90;99.90
14741;DHT22;7462;53.530;9.414;2022-07-24T03:03:25;13.90;99.90
14741;DHT22;7462;53.530;9.414;2022-07-24T03:05:55;13.90;99.90
14741;DHT22;7462;53.530;9.414;2022-07-24T03:08:23;13.90;99.90
14741;DHT22;7462;53.530;9.414;2022-07-24T03:10:51;13.80;99.90
14741;DHT22;7462;53.530;9.414;2022-07-24T03:13:19;13.80;99.90
14741;DHT22;7462;53.530;9.414;2022-07-24T03:15:47;13.80;99.90
14741;DHT22;7462;53.530;9.414;2022-07-24T03:18:16;13.80;99.90
14741;DHT22;7462;53.530;9.414;2022-07-24T03:20:49;13.80;99.90
14741;DHT22;7462;53.530;9.414;2022-07-24T03:23:19;13.80;99.90
14741;DHT22;7462;53.530;9.414;2022-07-24T03:25:47;13.80;99.90
14741;DHT22;7462;53.530;9.414;2022-07-24T03:28:15;13.80;99.90
14741;DHT22;7462;53.530;9.414;2022-07-24T03:30:43;13.80;99.90
14741;DHT22;7462;53.530;9.414;2022-07-24T03:33:11;13.70;99.90
14741;DHT22;7462;53.530;9.414;2022-07-24T03:35:39;13.80;99.90
14741;DHT22;7462;53.530;9.414;2022-07-24T03:38:08;13.80;99.90
14741;DHT22;7462;53.530;9.414;2022-07-24T03:40:38;13.80;99.90
14741;DHT22;7462;53.530;9.414;2022-07-24T03:43:06;13.80;99.90
14741;DHT22;7462;53.530;9.414;2022-07-24T03:45:34;13.80;99.90
14741;DHT22;7462;53.530;9.414;2022-07-24T03:48:03;13.80;99.90
14741;DHT22;7462;53.530;9.414;2022-07-24T03:50:34;13.80;99.90
14741;DHT22;7462;53.530;9.414;2022-07-24T03:53:03;13.80;99.90
14741;DHT22;7462;53.530;9.414;2022-07-24T03:55:32;13.80;99.90
14741;DHT22;7462;53.530;9.414;2022-07-24T03:58:02;13.80;99.90
14741;DHT22;7462;53.530;9.414;2022-07-24T04:00:30;13.90;99.90
14741;DHT22;7462;53.530;9.414;2022-07-24T04:02:58;13.90;99.90
14741;DHT22;7462;53.530;9.414;2022-07-24T04:05:26;14.00;99.90
14741;DHT22;7462;53.530;9.414;2022-07-24T04:07:54;14.00;99.90
14741;DHT22;7462;53.530;9.414;2022-07-24T04:10:22;14.10;99.90
14741;DHT22;7462;53.530;9.414;2022-07-24T04:12:50;14.10;99.90
14741;DHT22;7462;53.530;9.414;2022-07-24T04:15:20;14.30;99.90
14741;DHT22;7462;53.530;9.414;2022-07-24T04:17:48;14.30;99.90
14741;DHT22;7462;53.530;9.414;2022-07-24T04:20:17;14.40;99.90
14741;DHT22;7462;53.530;9.414;2022-07-24T04:22:45;14.40;99.90
14741;DHT22;7462;53.530;9.414;2022-07-24T04:25:14;14.50;99.90
14741;DHT22;7462;53.530;9.414;2022-07-24T04:27:42;14.60;99.90
14741;DHT22;7462;53.530;9.414;2022-07-24T04:30:12;14.70;99.90
14741;DHT22;7462;53.530;9.414;2022-07-24T04:32:41;14.70;99.90
14741;DHT22;7462;53.530;9.414;2022-07-24T04:35:10;14.70;99.90
14741;DHT22;7462;53.530;9.414;2022-07-24T04:37:38;14.80;99.90
14741;DHT22;7462;53.530;9.414;2022-07-24T04:40:07;14.90;99.90
14741;DHT22;7462;53.530;9.414;2022-07-24T04:42:36;15.00;99.90
14741;DHT22;7462;53.530;9.414;2022-07-24T04:45:04;15.10;99.90
14741;DHT22;7462;53.530;9.414;2022-07-24T04:47:33;15.10;99.90
14741;DHT22;7462;53.530;9.414;2022-07-24T04:50:03;15.10;99.90
14741;DHT22;7462;53.530;9.414;2022-07-24T04:52:32;15.10;99.90
14741;DHT22;7462;53.530;9.414;2022-07-24T04:55:00;15.10;99.90
14741;DHT22;7462;53.530;9.414;2022-07-24T04:57:28;15.10;99.90
14741;DHT22;7462;53.530;9.414;2022-07-24T04:59:56;15.30;99.90
14741;DHT22;7462;53.530;9.414;2022-07-24T05:02:24;15.30;99.90
14741;DHT22;7462;53.530;9.414;2022-07-24T05:04:52;15.50;99.90
14741;DHT22;7462;53.530;9.414;2022-07-24T05:07:22;15.70;99.90
14741;DHT22;7462;53.530;9.414;2022-07-24T05:09:50;15.80;99.90
14741;DHT22;7462;53.530;9.414;2022-07-24T05:12:18;15.90;99.90
14741;DHT22;7462;53.530;9.414;2022-07-24T05:14:46;16.00;99.90
14741;DHT22;7462;53.530;9.414;2022-07-24T05:17:14;16.20;99.90
14741;DHT22;7462;53.530;9.414;2022-07-24T05:19:43;16.30;99.90
14741;DHT22;7462;53.530;9.414;2022-07-24T05:22:11;16.40;99.90
14741;DHT22;7462;53.530;9.414;2022-07-24T05:24:40;16.50;99.90
14741;DHT22;7462;53.530;9.414;2022-07-24T05:27:08;16.60;99.90
14741;DHT22;7462;53.530;9.414;2022-07-24T05:29:38;16.80;99.90
14741;DHT22;7462;53.530;9.414;2022-07-24T05:32:07;16.90;99.90
14741;DHT22;7462;53.530;9.414;2022-07-24T05:34:35;17.10;99.90
14741;DHT22;7462;53.530;9.414;2022-07-24T05:37:07;17.00;99.90
14741;DHT22;7462;53.530;9.414;2022-07-24T05:39:35;17.10;99.90
14741;DHT22;7462;53.530;9.414;2022-07-24T05:42:05;17.30;99.90
14741;DHT22;7462;53.530;9.414;2022-07-24T05:44:33;17.30;99.90
14741;DHT22;7462;53.530;9.414;2022-07-24T05:47:01;17.40;99.90
14741;DHT22;7462;53.530;9.414;2022-07-24T05:49:33;17.60;99.90
14741;DHT22;7462;53.530;9.414;2022-07-24T05:52:01;18.00;99.90
14741;DHT22;7462;53.530;9.414;2022-07-24T05:54:35;18.10;99.90
14741;DHT22;7462;53.530;9.414;2022-07-24T05:57:05;18.30;99.90
14741;DHT22;7462;53.530;9.414;2022-07-24T05:59:33;18.30;99.90
14741;DHT22;7462;53.530;9.414;2022-07-24T06:02:01;18.30;99.90
14741;DHT22;7462;53.530;9.414;2022-07-24T06:04:31;18.30;99.90
14741;DHT22;7462;53.530;9.414;2022-07-24T06:07:00;18.10;99.90
14741;DHT22;7462;53.530;9.414;2022-07-24T06:09:28;18.10;99.90
14741;DHT22;7462;53.530;9.414;2022-07-24T06:11:56;18.10;99.90
14741;DHT22;7462;53.530;9.414;2022-07-24T06:14:25;18.10;99.90
14741;DHT22;7462;53.530;9.414;2022-07-24T06:16:53;18.30;99.90
14741;DHT22;7462;53.530;9.414;2022-07-24T06:19:22;18.50;99.90
14741;DHT22;7462;53.530;9.414;2022-07-24T06:21:50;18.50;99.90
14741;DHT22;7462;53.530;9.414;2022-07-24T06:24:18;18.60;99.90
14741;DHT22;7462;53.530;9.414;2022-07-24T06:26:46;18.70;99.90
14741;DHT22;7462;53.530;9.414;2022-07-24T06:29:36;19.00;99.90
14741;DHT22;7462;53.530;9.414;2022-07-24T06:32:04;19.30;99.90
14741;DHT22;7462;53.530;9.414;2022-07-24T06:34:33;19.40;99.90
14741;DHT22;7462;53.530;9.414;2022-07-24T06:37:01;19.60;99.90
14741;DHT22;7462;53.530;9.414;2022-07-24T06:39:29;19.80;99.90
14741;DHT22;7462;53.530;9.414;2022-07-24T06:41:57;19.90;99.90
14741;DHT22;7462;53.530;9.414;2022-07-24T06:44:28;20.00;99.90
14741;DHT22;7462;53.530;9.414;2022-07-24T06:46:57;20.10;99.90
14741;DHT22;7462;53.530;9.414;2022-07-24T06:49:25;20.50;99.90
14741;DHT22;7462;53.530;9.414;2022-07-24T06:51:53;20.90;99.90
14741;DHT22;7462;53.530;9.414;2022-07-24T06:54:21;21.20;99.90
14741;DHT22;7462;53.530;9.414;2022-07-24T06:56:49;21.30;99.90
14741;DHT22;7462;53.530;9.414;2022-07-24T06:59:18;21.20;99.90
14741;DHT22;7462;53.530;9.414;2022-07-24T07:01:46;21.40;99.90
14741;DHT22;7462;53.530;9.414;2022-07-24T07:04:16;21.50;99.90
14741;DHT22;7462;53.530;9.414;2022-07-24T07:06:44;21.70;99.90
14741;DHT22;7462;53.530;9.414;2022-07-24T07:09:12;21.90;99.90
14741;DHT22;7462;53.530;9.414;2022-07-24T07:11:40;21.90;99.90
14741;DHT22;7462;53.530;9.414;2022-07-24T07:14:17;22.00;99.90
14741;DHT22;7462;53.530;9.414;2022-07-24T07:16:45;22.00;99.90
14741;DHT22;7462;53.530;9.414;2022-07-24T07:19:13;22.30;99.90
14741;DHT22;7462;53.530;9.414;2022-07-24T07:21:43;22.60;99.90
14741;DHT22;7462;53.530;9.414;2022-07-24T07:24:11;22.90;99.90
14741;DHT22;7462;53.530;9.414;2022-07-24T07:26:39;23.10;99.90
14741;DHT22;7462;53.530;9.414;2022-07-24T07:29:08;23.30;99.90
14741;DHT22;7462;53.530;9.414;2022-07-24T07:31:36;23.50;99.90
14741;DHT22;7462;53.530;9.414;2022-07-24T07:34:05;23.60;99.90
14741;DHT22;7462;53.530;9.414;2022-07-24T07:36:33;23.50;99.90
14741;DHT22;7462;53.530;9.414;2022-07-24T07:39:02;23.40;99.90
14741;DHT22;7462;53.530;9.414;2022-07-24T07:41:31;23.40;99.90
14741;DHT22;7462;53.530;9.414;2022-07-24T07:44:00;23.60;99.90
14741;DHT22;7462;53.530;9.414;2022-07-24T07:46:28;24.20;99.90
14741;DHT22;7462;53.530;9.414;2022-07-24T07:48:57;24.40;99.90
14741;DHT22;7462;53.530;9.414;2022-07-24T07:51:25;24.70;99.90
14741;DHT22;7462;53.530;9.414;2022-07-24T07:53:53;25.00;99.90
14741;DHT22;7462;53.530;9.414;2022-07-24T07:56:23;25.10;99.90
14741;DHT22;7462;53.530;9.414;2022-07-24T07:58:51;25.40;99.90
14741;DHT22;7462;53.530;9.414;2022-07-24T08:01:26;25.50;99.90
14741;DHT22;7462;53.530;9.414;2022-07-24T08:03:55;25.60;99.90
14741;DHT22;7462;53.530;9.414;2022-07-24T08:06:23;25.60;99.90
14741;DHT22;7462;53.530;9.414;2022-07-24T08:08:52;25.70;99.90
14741;DHT22;7462;53.530;9.414;2022-07-24T08:11:23;25.90;99.90
14741;DHT22;7462;53.530;9.414;2022-07-24T08:13:53;26.10;99.90
14741;DHT22;7462;53.530;9.414;2022-07-24T08:16:22;26.00;99.90
14741;DHT22;7462;53.530;9.414;2022-07-24T08:18:50;26.10;99.90
14741;DHT22;7462;53.530;9.414;2022-07-24T08:21:18;25.90;99.90
14741;DHT22;7462;53.530;9.414;2022-07-24T08:23:47;26.10;99.90
14741;DHT22;7462;53.530;9.414;2022-07-24T08:26:15;26.40;99.90
14741;DHT22;7462;53.530;9.414;2022-07-24T08:28:45;26.40;99.90
14741;DHT22;7462;53.530;9.414;2022-07-24T08:31:13;26.20;99.90
14741;DHT22;7462;53.530;9.414;2022-07-24T08:33:41;26.20;99.90
14741;DHT22;7462;53.530;9.414;2022-07-24T08:36:09;26.60;99.90
14741;DHT22;7462;53.530;9.414;2022-07-24T08:38:37;26.50;99.90
14741;DHT22;7462;53.530;9.414;2022-07-24T08:41:05;26.60;99.90
14741;DHT22;7462;53.530;9.414;2022-07-24T08:43:34;26.70;99.90
14741;DHT22;7462;53.530;9.414;2022-07-24T08:46:04;26.70;99.90
14741;DHT22;7462;53.530;9.414;2022-07-24T08:48:36;27.10;99.90
14741;DHT22;7462;53.530;9.414;2022-07-24T08:51:05;27.10;99.90
14741;DHT22;7462;53.530;9.414;2022-07-24T08:53:33;27.40;99.90
14741;DHT22;7462;53.530;9.414;2022-07-24T08:56:01;27.40;99.90
14741;DHT22;7462;53.530;9.414;2022-07-24T08:58:30;27.60;99.90
14741;DHT22;7462;53.530;9.414;2022-07-24T09:00:58;27.70;99.90
14741;DHT22;7462;53.530;9.414;2022-07-24T09:03:28;27.60;99.90
14741;DHT22;7462;53.530;9.414;2022-07-24T09:05:57;27.60;99.90
14741;DHT22;7462;53.530;9.414;2022-07-24T09:08:26;27.80;99.90
14741;DHT22;7462;53.530;9.414;2022-07-24T09:10:56;27.80;99.90
14741;DHT22;7462;53.530;9.414;2022-07-24T09:13:27;27.90;99.90
14741;DHT22;7462;53.530;9.414;2022-07-24T09:15:59;28.00;99.90
14741;DHT22;7462;53.530;9.414;2022-07-24T09:18:33;28.00;99.90
14741;DHT22;7462;53.530;9.414;2022-07-24T09:21:12;28.00;99.90
14741;DHT22;7462;53.530;9.414;2022-07-24T09:23:41;28.40;99.90
14741;DHT22;7462;53.530;9.414;2022-07-24T09:26:12;28.80;99.90
14741;DHT22;7462;53.530;9.414;2022-07-24T09:28:49;28.90;99.90
14741;DHT22;7462;53.530;9.414;2022-07-24T09:31:18;28.60;99.90
14741;DHT22;7462;53.530;9.414;2022-07-24T09:33:50;28.60;99.90
14741;DHT22;7462;53.530;9.414;2022-07-24T09:36:19;28.50;99.90
14741;DHT22;7462;53.530;9.414;2022-07-24T09:38:48;28.80;99.90
14741;DHT22;7462;53.530;9.414;2022-07-24T09:41:21;29.00;99.90
14741;DHT22;7462;53.530;9.414;2022-07-24T09:44:00;29.40;99.90
14741;DHT22;7462;53.530;9.414;2022-07-24T09:46:46;29.60;99.90
14741;DHT22;7462;53.530;9.414;2022-07-24T09:49:20;29.20;99.90
14741;DHT22;7462;53.530;9.414;2022-07-24T09:52:07;29.00;99.90
14741;DHT22;7462;53.530;9.414;2022-07-24T09:54:38;29.20;99.90
14741;DHT22;7462;53.530;9.414;2022-07-24T09:57:19;29.10;99.90
14741;DHT22;7462;53.530;9.414;2022-07-24T09:59:49;29.60;99.90
14741;DHT22;7462;53.530;9.414;2022-07-24T10:02:24;30.00;99.90
14741;DHT22;7462;53.530;9.414;2022-07-24T10:04:57;29.60;99.90
14741;DHT22;7462;53.530;9.414;2022-07-24T10:07:27;29.80;99.90
14741;DHT22;7462;53.530;9.414;2022-07-24T10:09:56;30.10;99.90
14741;DHT22;7462;53.530;9.414;2022-07-24T10:12:28;30.10;99.90
14741;DHT22;7462;53.530;9.414;2022-07-24T10:14:59;30.50;99.90
14741;DHT22;7462;53.530;9.414;2022-07-24T10:17:49;30.80;99.90
14741;DHT22;7462;53.530;9.414;2022-07-24T10:20:37;30.50;99.90
14741;DHT22;7462;53.530;9.414;2022-07-24T10:23:20;30.40;99.90
14741;DHT22;7462;53.530;9.414;2022-07-24T10:25:54;30.60;99.90
14741;DHT22;7462;53.530;9.414;2022-07-24T10:28:35;30.70;99.90
14741;DHT22;7462;53.530;9.414;2022-07-24T10:31:06;30.90;99.90
14741;DHT22;7462;53.530;9.414;2022-07-24T10:33:36;31.30;99.90
14741;DHT22;7462;53.530;9.414;2022-07-24T10:36:15;31.10;99.90
14741;DHT22;7462;53.530;9.414;2022-07-24T10:38:52;30.80;99.90
14741;DHT22;7462;53.530;9.414;2022-07-24T10:41:25;30.90;99.90
14741;DHT22;7462;53.530;9.414;2022-07-24T10:44:13;30.90;99.90
14741;DHT22;7462;53.530;9.414;2022-07-24T10:47:00;30.50;99.90
14741;DHT22;7462;53.530;9.414;2022-07-24T10:52:26;31.10;99.90
14741;DHT22;7462;53.530;9.414;2022-07-24T10:55:23;31.40;99.40
14741;DHT22;7462;53.530;9.414;2022-07-24T10:58:12;31.40;98.60
14741;DHT22;7462;53.530;9.414;2022-07-24T11:00:43;31.30;99.90
14741;DHT22;7462;53.530;9.414;2022-07-24T11:03:19;31.30;99.50
14741;DHT22;7462;53.530;9.414;2022-07-24T11:06:03;31.30;99.90
14741;DHT22;7462;53.530;9.414;2022-07-24T11:08:37;31.10;99.10
14741;DHT22;7462;53.530;9.414;2022-07-24T11:11:13;31.10;99.20
14741;DHT22;7462;53.530;9.414;2022-07-24T11:13:47;30.90;98.90
14741;DHT22;7462;53.530;9.414;2022-07-24T11:19:25;31.30;99.90
14741;DHT22;7462;53.530;9.414;2022-07-24T11:22:08;31.80;99.90
14741;DHT22;7462;53.530;9.414;2022-07-24T11:27:25;32.30;98.90
14741;DHT22;7462;53.530;9.414;2022-07-24T11:29:55;32.10;97.90
14741;DHT22;7462;53.530;9.414;2022-07-24T11:32:28;31.80;97.90
14741;DHT22;7462;53.530;9.414;2022-07-24T11:34:57;31.40;98.60
14741;DHT22;7462;53.530;9.414;2022-07-24T11:37:29;31.40;98.30
14741;DHT22;7462;53.530;9.414;2022-07-24T11:40:04;31.30;97.90
14741;DHT22;7462;53.530;9.414;2022-07-24T11:42:34;31.00;99.20
14741;DHT22;7462;53.530;9.414;2022-07-24T11:45:03;30.80;99.60
14741;DHT22;7462;53.530;9.414;2022-07-24T11:47:32;30.50;99.60
14741;DHT22;7462;53.530;9.414;2022-07-24T11:50:02;30.20;99.90
14741;DHT22;7462;53.530;9.414;2022-07-24T11:52:33;29.90;99.90
14741;DHT22;7462;53.530;9.414;2022-07-24T11:55:05;29.80;99.90
14741;DHT22;7462;53.530;9.414;2022-07-24T11:57:44;29.60;99.90
14741;DHT22;7462;53.530;9.414;2022-07-24T12:00:32;29.60;99.90
14741;DHT22;7462;53.530;9.414;2022-07-24T12:03:01;29.40;99.90
14741;DHT22;7462;53.530;9.414;2022-07-24T12:05:32;29.50;99.90
14741;DHT22;7462;53.530;9.414;2022-07-24T12:08:03;29.40;99.90
14741;DHT22;7462;53.530;9.414;2022-07-24T12:10:33;29.50;99.90
14741;DHT22;7462;53.530;9.414;2022-07-24T12:13:02;29.50;99.90
14741;DHT22;7462;53.530;9.414;2022-07-24T12:15:31;29.80;99.90
14741;DHT22;7462;53.530;9.414;2022-07-24T12:18:01;29.80;99.90
14741;DHT22;7462;53.530;9.414;2022-07-24T12:20:31;30.00;99.70
14741;DHT22;7462;53.530;9.414;2022-07-24T12:23:02;30.00;99.90
14741;DHT22;7462;53.530;9.414;2022-07-24T12:25:32;29.80;99.90
14741;DHT22;7462;53.530;9.414;2022-07-24T12:28:03;29.80;99.90
14741;DHT22;7462;53.530;9.414;2022-07-24T12:30:33;29.90;99.90
14741;DHT22;7462;53.530;9.414;2022-07-24T12:33:04;30.00;99.90
14741;DHT22;7462;53.530;9.414;2022-07-24T12:35:33;29.90;99.80
14741;DHT22;7462;53.530;9.414;2022-07-24T12:38:02;29.70;99.80
14741;DHT22;7462;53.530;9.414;2022-07-24T12:40:34;29.70;99.90
14741;DHT22;7462;53.530;9.414;2022-07-24T12:43:08;29.70;99.50
14741;DHT22;7462;53.530;9.414;2022-07-24T12:45:37;29.90;99.90
14741;DHT22;7462;53.530;9.414;2022-07-24T12:48:19;30.10;99.90
14741;DHT22;7462;53.530;9.414;2022-07-24T12:51:06;30.20;99.50
14741;DHT22;7462;53.530;9.414;2022-07-24T12:53:38;30.10;99.10
14741;DHT22;7462;53.530;9.414;2022-07-24T12:56:10;30.10;99.70
14741;DHT22;7462;53.530;9.414;2022-07-24T12:58:57;30.10;99.30
14741;DHT22;7462;53.530;9.414;2022-07-24T13:01:45;30.20;99.70
14741;DHT22;7462;53.530;9.414;2022-07-24T13:04:16;30.20;99.40
14741;DHT22;7462;53.530;9.414;2022-07-24T13:06:47;30.20;98.60
14741;DHT22;7462;53.530;9.414;2022-07-24T13:09:16;30.10;99.40
14741;DHT22;7462;53.530;9.414;2022-07-24T13:11:48;29.90;99.10
14741;DHT22;7462;53.530;9.414;2022-07-24T13:14:18;29.80;99.50
14741;DHT22;7462;53.530;9.414;2022-07-24T13:16:48;29.80;99.50
14741;DHT22;7462;53.530;9.414;2022-07-24T13:19:19;29.60;99.90
14741;DHT22;7462;53.530;9.414;2022-07-24T13:21:48;29.80;99.90
14741;DHT22;7462;53.530;9.414;2022-07-24T13:24:16;29.80;99.50
14741;DHT22;7462;53.530;9.414;2022-07-24T13:26:50;29.60;98.90
14741;DHT22;7462;53.530;9.414;2022-07-24T13:29:25;29.70;98.80
14741;DHT22;7462;53.530;9.414;2022-07-24T13:31:53;29.70;98.90
14741;DHT22;7462;53.530;9.414;2022-07-24T13:34:22;29.80;99.20
14741;DHT22;7462;53.530;9.414;2022-07-24T13:36:54;29.70;99.30
14741;DHT22;7462;53.530;9.414;2022-07-24T13:39:23;29.60;99.00
14741;DHT22;7462;53.530;9.414;2022-07-24T13:41:53;29.50;98.80
14741;DHT22;7462;53.530;9.414;2022-07-24T13:44:21;29.60;99.00
14741;DHT22;7462;53.530;9.414;2022-07-24T13:46:49;29.60;99.10
14741;DHT22;7462;53.530;9.414;2022-07-24T13:49:17;29.60;98.80
14741;DHT22;7462;53.530;9.414;2022-07-24T13:51:46;29.70;98.30
14741;DHT22;7462;53.530;9.414;2022-07-24T13:54:15;29.70;98.90
14741;DHT22;7462;53.530;9.414;2022-07-24T13:56:43;29.90;99.40
14741;DHT22;7462;53.530;9.414;2022-07-24T13:59:13;29.70;99.30
14741;DHT22;7462;53.530;9.414;2022-07-24T14:01:41;29.70;99.20
14741;DHT22;7462;53.530;9.414;2022-07-24T14:04:10;29.60;98.30
14741;DHT22;7462;53.530;9.414;2022-07-24T14:06:53;29.50;99.00
14741;DHT22;7462;53.530;9.414;2022-07-24T14:09:22;29.50;99.10
14741;DHT22;7462;53.530;9.414;2022-07-24T14:11:50;29.50;99.50
14741;DHT22;7462;53.530;9.414;2022-07-24T14:14:21;29.30;98.70
14741;DHT22;7462;53.530;9.414;2022-07-24T14:16:49;29.20;98.50
14741;DHT22;7462;53.530;9.414;2022-07-24T14:19:17;29.20;99.10
14741;DHT22;7462;53.530;9.414;2022-07-24T14:21:52;29.20;98.60
14741;DHT22;7462;53.530;9.414;2022-07-24T14:24:22;29.20;99.50
14741;DHT22;7462;53.530;9.414;2022-07-24T14:26:50;29.20;98.70
14741;DHT22;7462;53.530;9.414;2022-07-24T14:29:20;29.20;98.90
14741;DHT22;7462;53.530;9.414;2022-07-24T14:31:48;29.20;99.20
14741;DHT22;7462;53.530;9.414;2022-07-24T14:34:17;29.10;98.60
14741;DHT22;7462;53.530;9.414;2022-07-24T14:36:45;29.20;99.00
14741;DHT22;7462;53.530;9.414;2022-07-24T14:39:14;29.20;98.90
14741;DHT22;7462;53.530;9.414;2022-07-24T14:41:42;29.20;98.40
14741;DHT22;7462;53.530;9.414;2022-07-24T14:44:11;29.10;99.00
14741;DHT22;7462;53.530;9.414;2022-07-24T14:46:41;29.00;99.30
14741;DHT22;7462;53.530;9.414;2022-07-24T14:49:09;29.00;99.70
14741;DHT22;7462;53.530;9.414;2022-07-24T14:51:38;29.00;99.90
14741;DHT22;7462;53.530;9.414;2022-07-24T14:54:06;29.00;99.20
14741;DHT22;7462;53.530;9.414;2022-07-24T14:56:36;28.90;99.70
14741;DHT22;7462;53.530;9.414;2022-07-24T14:59:05;29.00;99.90
14741;DHT22;7462;53.530;9.414;2022-07-24T15:01:34;29.00;99.80
14741;DHT22;7462;53.530;9.414;2022-07-24T15:04:07;29.00;99.90
14741;DHT22;7462;53.530;9.414;2022-07-24T15:06:37;29.00;99.90
14741;DHT22;7462;53.530;9.414;2022-07-24T15:09:06;28.90;99.90
14741;DHT22;7462;53.530;9.414;2022-07-24T15:11:34;28.80;99.90
14741;DHT22;7462;53.530;9.414;2022-07-24T15:14:04;28.70;99.90
14741;DHT22;7462;53.530;9.414;2022-07-24T15:16:33;28.60;99.90
14741;DHT22;7462;53.530;9.414;2022-07-24T15:19:02;28.70;99.90
14741;DHT22;7462;53.530;9.414;2022-07-24T15:21:35;28.70;99.90
14741;DHT22;7462;53.530;9.414;2022-07-24T15:24:04;28.70;99.90
14741;DHT22;7462;53.530;9.414;2022-07-24T15:26:34;28.70;99.90
14741;DHT22;7462;53.530;9.414;2022-07-24T15:29:02;28.70;99.90
14741;DHT22;7462;53.530;9.414;2022-07-24T15:31:31;28.70;99.90
14741;DHT22;7462;53.530;9.414;2022-07-24T15:34:04;28.70;99.90
14741;DHT22;7462;53.530;9.414;2022-07-24T15:36:35;28.70;99.90
14741;DHT22;7462;53.530;9.414;2022-07-24T15:39:04;28.70;99.90
14741;DHT22;7462;53.530;9.414;2022-07-24T15:41:33;28.80;99.90
14741;DHT22;7462;53.530;9.414;2022-07-24T15:44:02;28.90;99.90
14741;DHT22;7462;53.530;9.414;2022-07-24T15:46:31;28.80;99.90
14741;DHT22;7462;53.530;9.414;2022-07-24T15:48:59;28.80;99.90
14741;DHT22;7462;53.530;9.414;2022-07-24T15:51:31;28.80;99.90
14741;DHT22;7462;53.530;9.414;2022-07-24T15:54:01;28.80;99.90
14741;DHT22;7462;53.530;9.414;2022-07-24T15:56:30;28.90;99.90
14741;DHT22;7462;53.530;9.414;2022-07-24T15:58:58;29.00;99.90
14741;DHT22;7462;53.530;9.414;2022-07-24T16:01:27;28.90;99.90
14741;DHT22;7462;53.530;9.414;2022-07-24T16:04:11;28.90;99.90
14741;DHT22;7462;53.530;9.414;2022-07-24T16:06:40;28.80;99.90
14741;DHT22;7462;53.530;9.414;2022-07-24T16:09:09;28.80;99.90
14741;DHT22;7462;53.530;9.414;2022-07-24T16:11:38;28.80;99.90
14741;DHT22;7462;53.530;9.414;2022-07-24T16:14:06;28.80;99.90